Lauderdale Isles, Florida
Current Conditions -  °F | °C
As of 10:53 PM on Tuesday 21 Oct 2014 (Local Time) from KFLL Reporting Station
Overcast Overcast  
Wind Chill: 76°   Ceiling: 25000
Heat Index: 76°   Visibility: 10mi
Dew Point: 70°   Wind: 0mph
Humidity: 82%   Direction: NA
Pressure: 29.95"   Gusts: NA
Location:  26.0861°N, 80.1822°W
Report Text: KFLL 220253Z 00000KT 10SM FEW120 OVC250 24/21 A2995 RMK AO2 SLP141 T02440211 50004
Loading
Personal Weather Stations






























Interactive Weather Map
Tropical Storm Tracking
New forecast layout! Learn more

10-Day Weather Forecast

Advertisements
Track Severe Weather on mobile